createdAt,value
2018-04-20T00:02:00.656Z,48.40
2018-04-20T00:04:28.185Z,48.00
2018-04-20T00:06:55.834Z,48.00
2018-04-20T00:09:23.370Z,48.10
2018-04-20T00:11:51.102Z,48.10
2018-04-20T00:14:19.235Z,48.10
2018-04-20T00:16:46.838Z,48.10
2018-04-20T00:19:14.395Z,48.10
2018-04-20T00:21:41.928Z,47.90
2018-04-20T00:24:09.668Z,47.90
2018-04-20T00:26:37.179Z,47.90
2018-04-20T00:29:04.708Z,47.90
2018-04-20T00:31:32.267Z,48.00
2018-04-20T00:33:59.794Z,47.90
2018-04-20T00:36:27.354Z,47.90
2018-04-20T00:38:54.902Z,48.10
2018-04-20T00:41:22.493Z,48.10
2018-04-20T00:43:50.148Z,48.00
2018-04-20T00:46:17.721Z,48.30
2018-04-20T00:48:45.290Z,48.50
2018-04-20T00:51:12.890Z,48.30
2018-04-20T00:53:52.836Z,48.30
2018-04-20T00:56:20.378Z,48.30
2018-04-20T00:58:47.955Z,48.10
2018-04-20T01:01:15.543Z,48.40
2018-04-20T01:03:43.174Z,48.30
2018-04-20T01:06:10.723Z,48.50
2018-04-20T01:08:38.294Z,48.80
2018-04-20T01:11:05.850Z,48.80
2018-04-20T01:13:33.415Z,48.80
2018-04-20T01:16:00.951Z,49.00
2018-04-20T01:18:28.478Z,48.90
2018-04-20T01:20:56.038Z,48.80
2018-04-20T01:23:23.559Z,49.00
2018-04-20T01:25:51.132Z,48.80
2018-04-20T01:28:18.663Z,48.80
2018-04-20T01:30:46.239Z,48.80
2018-04-20T01:33:13.856Z,48.90
2018-04-20T01:35:41.391Z,48.90
2018-04-20T01:38:08.951Z,48.90
2018-04-20T01:40:36.477Z,49.00
2018-04-20T01:43:04.755Z,49.10
2018-04-20T01:45:32.303Z,49.10
2018-04-20T01:48:00.586Z,49.30
2018-04-20T01:50:28.103Z,49.20
2018-04-20T01:52:55.642Z,50.20
2018-04-20T01:55:23.208Z,49.70
2018-04-20T01:57:50.771Z,49.50
2018-04-20T02:00:18.528Z,49.50
2018-04-20T02:02:46.291Z,49.80
2018-04-20T02:05:13.852Z,50.00
2018-04-20T02:07:41.383Z,49.90
2018-04-20T02:10:08.979Z,50.00
2018-04-20T02:12:36.543Z,50.10
2018-04-20T02:15:04.055Z,50.00
2018-04-20T02:17:31.588Z,50.00
2018-04-20T02:19:59.164Z,50.00
2018-04-20T02:22:27.456Z,50.10
2018-04-20T02:24:55.022Z,50.00
2018-04-20T02:27:23.339Z,49.80
2018-04-20T02:29:50.892Z,49.80
2018-04-20T02:32:18.459Z,49.90
2018-04-20T02:34:45.976Z,49.90
2018-04-20T02:37:13.519Z,50.10
2018-04-20T02:39:41.847Z,50.10
2018-04-20T02:42:09.380Z,50.00
2018-04-20T02:44:36.973Z,49.80
2018-04-20T02:47:04.541Z,49.90
2018-04-20T02:49:32.084Z,50.20
2018-04-20T02:51:59.654Z,50.30
2018-04-20T02:54:27.252Z,50.10
2018-04-20T02:56:55.700Z,50.30
2018-04-20T02:59:23.222Z,50.30
2018-04-20T03:01:50.785Z,50.10
2018-04-20T03:04:18.339Z,50.10
2018-04-20T03:06:46.027Z,50.30
2018-04-20T03:09:13.613Z,50.30
2018-04-20T03:11:41.145Z,50.10
2018-04-20T03:14:08.737Z,50.30
2018-04-20T03:16:36.277Z,50.50
2018-04-20T03:19:03.821Z,50.40
2018-04-20T03:21:31.417Z,50.40
2018-04-20T03:23:58.965Z,50.30
2018-04-20T03:26:26.521Z,50.20
2018-04-20T03:28:54.044Z,50.30
2018-04-20T03:31:21.627Z,50.40
2018-04-20T03:33:49.163Z,50.40
2018-04-20T03:36:16.736Z,50.50
2018-04-20T03:38:44.616Z,50.50
2018-04-20T03:41:12.189Z,50.80
2018-04-20T03:43:39.711Z,50.90
2018-04-20T03:46:07.502Z,50.90
2018-04-20T03:48:35.855Z,51.00
2018-04-20T03:51:03.387Z,51.00
2018-04-20T03:53:31.695Z,51.40
2018-04-20T03:55:59.248Z,51.40
2018-04-20T03:58:26.954Z,51.20
2018-04-20T04:00:54.511Z,51.30
2018-04-20T04:03:22.034Z,51.30
2018-04-20T04:05:49.600Z,51.50
2018-04-20T04:08:17.137Z,51.50
2018-04-20T04:10:45.482Z,51.60
2018-04-20T04:13:13.063Z,51.50
2018-04-20T04:15:40.625Z,51.80
2018-04-20T04:18:20.057Z,51.80
2018-04-20T04:20:47.588Z,51.90
2018-04-20T04:23:26.888Z,52.40
2018-04-20T04:26:06.092Z,52.50
2018-04-20T04:28:33.672Z,52.50
2018-04-20T04:31:01.238Z,52.30
2018-04-20T04:33:28.799Z,52.10
2018-04-20T04:35:56.342Z,52.00
2018-04-20T04:38:24.665Z,52.00
2018-04-20T04:40:52.319Z,51.90
2018-04-20T04:43:19.895Z,51.80
2018-04-20T04:45:47.476Z,51.90
2018-04-20T04:48:15.058Z,51.90
2018-04-20T04:50:42.608Z,52.00
2018-04-20T04:53:11.158Z,52.10
2018-04-20T04:55:38.711Z,52.60
2018-04-20T04:58:06.225Z,52.10
2018-04-20T05:00:34.553Z,51.70
2018-04-20T05:03:02.191Z,51.70
2018-04-20T05:05:29.853Z,51.70
2018-04-20T05:07:57.402Z,51.80
2018-04-20T05:10:24.973Z,51.70
2018-04-20T05:12:52.501Z,51.70
2018-04-20T05:15:20.819Z,51.80
2018-04-20T05:17:48.644Z,51.70
2018-04-20T05:20:16.294Z,51.60
2018-04-20T05:22:43.817Z,51.50
2018-04-20T05:25:11.463Z,51.70
2018-04-20T05:27:39.301Z,51.70
2018-04-20T05:30:06.851Z,51.50
2018-04-20T05:32:35.161Z,51.70
2018-04-20T05:35:03.018Z,51.60
2018-04-20T05:37:30.793Z,51.70
2018-04-20T05:39:58.473Z,51.50
2018-04-20T05:42:26.033Z,51.20
2018-04-20T05:44:53.810Z,51.00
2018-04-20T05:47:21.468Z,51.20
2018-04-20T05:49:49.009Z,51.20
2018-04-20T05:52:16.580Z,51.30
2018-04-20T05:54:44.121Z,51.10
2018-04-20T05:57:11.992Z,51.20
2018-04-20T05:59:39.625Z,51.00
2018-04-20T06:02:08.066Z,50.90
2018-04-20T06:04:35.660Z,50.80
2018-04-20T06:07:03.247Z,50.60
2018-04-20T06:09:30.775Z,50.60
2018-04-20T06:11:59.170Z,50.40
2018-04-20T06:14:26.876Z,50.40
2018-04-20T06:16:54.396Z,50.30
2018-04-20T06:19:22.071Z,50.40
2018-04-20T06:21:49.611Z,50.10
2018-04-20T06:24:17.196Z,49.80
2018-04-20T06:26:44.869Z,49.70
2018-04-20T06:29:12.504Z,49.60
2018-04-20T06:31:40.067Z,49.50
2018-04-20T06:34:07.793Z,49.30
2018-04-20T06:36:36.220Z,49.40
2018-04-20T06:39:03.859Z,49.30
2018-04-20T06:41:31.475Z,49.00
2018-04-20T06:43:59.104Z,48.90
2018-04-20T06:46:27.484Z,48.80
2018-04-20T06:48:55.158Z,48.70
2018-04-20T06:51:22.682Z,48.60
2018-04-20T06:53:50.330Z,49.20
2018-04-20T06:56:17.874Z,48.60
2018-04-20T06:58:45.459Z,48.50
2018-04-20T07:01:13.777Z,48.30
2018-04-20T07:03:41.482Z,48.20
2018-04-20T07:06:09.074Z,48.30
2018-04-20T07:08:36.622Z,48.30
2018-04-20T07:11:04.188Z,48.10
2018-04-20T07:13:31.894Z,47.70
2018-04-20T07:15:59.572Z,47.50
2018-04-20T07:18:27.161Z,47.30
2018-04-20T07:20:54.811Z,47.10
2018-04-20T07:23:22.415Z,46.60
2018-04-20T07:25:50.204Z,46.20
2018-04-20T07:28:17.844Z,45.80
2018-04-20T07:30:45.390Z,45.50
2018-04-20T07:33:13.053Z,45.20
2018-04-20T07:35:40.794Z,44.90
2018-04-20T07:38:09.172Z,44.00
2018-04-20T07:40:36.741Z,43.90
2018-04-20T07:43:05.026Z,42.90
2018-04-20T07:45:32.653Z,42.90
2018-04-20T07:48:00.217Z,42.80
2018-04-20T07:50:27.934Z,42.30
2018-04-20T07:52:55.552Z,42.30
2018-04-20T07:55:23.112Z,42.10
2018-04-20T07:57:51.391Z,41.80
2018-04-20T08:00:19.120Z,41.60
2018-04-20T08:02:46.681Z,41.60
2018-04-20T08:05:14.409Z,41.50
2018-04-20T08:07:41.957Z,41.30
2018-04-20T08:10:09.546Z,41.20
2018-04-20T08:12:37.094Z,41.30
2018-04-20T08:15:05.612Z,41.30
2018-04-20T08:17:33.169Z,41.20
2018-04-20T08:20:00.731Z,41.20
2018-04-20T08:22:28.343Z,41.10
2018-04-20T08:24:56.645Z,41.10
2018-04-20T08:27:25.012Z,40.90
2018-04-20T08:29:52.630Z,41.10
2018-04-20T08:32:20.235Z,40.90
2018-04-20T08:34:48.208Z,40.80
2018-04-20T08:37:16.076Z,40.70
2018-04-20T08:39:43.654Z,40.80
2018-04-20T08:42:11.207Z,40.90
2018-04-20T08:44:38.746Z,40.90
2018-04-20T08:47:06.384Z,41.00
2018-04-20T08:49:33.928Z,40.90
2018-04-20T08:52:02.261Z,41.00
2018-04-20T08:54:29.780Z,41.00
2018-04-20T08:56:58.137Z,41.10
2018-04-20T08:59:26.479Z,41.10
2018-04-20T09:01:54.170Z,41.10
2018-04-20T09:04:22.588Z,41.50
2018-04-20T09:06:50.546Z,41.50
2018-04-20T09:09:18.198Z,41.70
2018-04-20T09:11:46.490Z,41.60
2018-04-20T09:14:14.798Z,41.60
2018-04-20T09:16:42.433Z,41.60
2018-04-20T09:19:10.000Z,41.90
2018-04-20T09:21:37.555Z,42.00
2018-04-20T09:24:05.262Z,42.10
2018-04-20T09:26:32.839Z,42.10
2018-04-20T09:29:01.195Z,42.00
2018-04-20T09:31:28.754Z,42.00
2018-04-20T09:33:56.316Z,41.90
2018-04-20T09:36:23.894Z,41.90
2018-04-20T09:38:51.580Z,42.10
2018-04-20T09:41:19.344Z,42.10
2018-04-20T09:56:42.005Z,42.10
2018-04-20T09:59:09.580Z,44.20
2018-04-20T10:01:37.183Z,43.90
2018-04-20T10:04:10.366Z,43.80
2018-04-20T10:06:45.977Z,43.40
2018-04-20T10:09:13.562Z,43.30
2018-04-20T10:11:41.225Z,43.20
2018-04-20T10:14:08.745Z,43.30
2018-04-20T10:16:36.336Z,43.20
2018-04-20T10:19:03.956Z,43.50
2018-04-20T10:21:31.611Z,43.40
2018-04-20T10:23:59.954Z,43.50
2018-04-20T10:26:27.522Z,43.50
2018-04-20T10:28:55.149Z,43.70
2018-04-20T10:31:22.670Z,43.70
2018-04-20T10:33:51.027Z,43.80
2018-04-20T10:36:18.711Z,43.80
2018-04-20T10:38:46.291Z,43.90
2018-04-20T10:41:13.936Z,43.80
2018-04-20T10:43:41.792Z,43.80
2018-04-20T10:46:10.160Z,43.80
2018-04-20T10:48:37.762Z,43.80
2018-04-20T10:51:05.312Z,44.40
2018-04-20T10:53:32.870Z,43.80
2018-04-20T10:56:00.584Z,44.00
2018-04-20T10:58:28.158Z,44.00
2018-04-20T11:00:55.718Z,43.90
2018-04-20T11:03:23.264Z,43.80
2018-04-20T11:05:51.713Z,43.80
2018-04-20T11:08:19.336Z,43.50
2018-04-20T11:10:47.096Z,43.60
2018-04-20T11:13:14.732Z,43.30
2018-04-20T11:15:42.303Z,43.20
2018-04-20T11:18:09.903Z,43.20
2018-04-20T11:20:37.671Z,43.10
2018-04-20T11:23:05.298Z,43.10
2018-04-20T11:25:32.885Z,43.00
2018-04-20T11:28:00.432Z,42.70
2018-04-20T11:30:27.987Z,42.40
2018-04-20T11:32:55.521Z,42.30
2018-04-20T11:35:23.082Z,42.30
2018-04-20T11:37:50.702Z,42.30
2018-04-20T11:40:18.248Z,42.40
2018-04-20T11:42:45.785Z,42.10
2018-04-20T11:45:13.387Z,42.30
2018-04-20T11:47:40.988Z,42.30
2018-04-20T11:50:08.544Z,42.40
2018-04-20T11:52:36.106Z,42.10
2018-04-20T11:55:03.690Z,42.20
2018-04-20T11:57:31.229Z,42.10
2018-04-20T11:59:58.931Z,42.30
2018-04-20T12:02:26.491Z,41.30
2018-04-20T12:04:54.394Z,41.00
2018-04-20T12:07:22.354Z,40.80
2018-04-20T12:09:49.928Z,39.90
2018-04-20T12:12:17.509Z,40.40
2018-04-20T12:14:45.075Z,40.10
2018-04-20T12:17:12.933Z,40.70
2018-04-20T12:19:40.487Z,40.80
2018-04-20T12:22:08.084Z,40.90
2018-04-20T12:24:36.524Z,40.90
2018-04-20T12:27:04.075Z,40.80
2018-04-20T12:29:32.434Z,40.60
2018-04-20T12:31:59.965Z,40.60
2018-04-20T12:34:27.796Z,40.60
2018-04-20T12:36:55.421Z,40.20
2018-04-20T12:39:22.955Z,40.30
2018-04-20T12:41:50.502Z,40.60
2018-04-20T12:44:18.984Z,40.40
2018-04-20T12:46:46.537Z,40.40
2018-04-20T12:49:14.129Z,40.50
2018-04-20T12:51:41.742Z,40.50
2018-04-20T12:54:10.103Z,40.30
2018-04-20T12:56:37.844Z,40.30
2018-04-20T12:59:05.620Z,40.40
2018-04-20T13:01:33.295Z,40.20
2018-04-20T13:04:00.858Z,38.80
2018-04-20T13:06:28.509Z,39.20
2018-04-20T13:08:56.087Z,39.20
2018-04-20T13:11:23.630Z,39.30
2018-04-20T13:13:51.247Z,39.10
2018-04-20T13:16:18.974Z,39.50
2018-04-20T13:18:46.515Z,39.50
2018-04-20T13:21:14.175Z,39.30
2018-04-20T13:23:41.863Z,39.60
2018-04-20T13:26:09.462Z,39.50
2018-04-20T13:28:37.058Z,39.50
2018-04-20T13:31:04.785Z,39.30
2018-04-20T13:33:32.391Z,39.50
2018-04-20T13:35:59.913Z,39.70
2018-04-20T13:38:27.467Z,39.50
2018-04-20T13:40:55.067Z,39.10
2018-04-20T13:43:22.649Z,38.90
2018-04-20T13:45:50.187Z,38.80
2018-04-20T13:48:17.742Z,38.20
2018-04-20T13:50:45.271Z,37.90
2018-04-20T13:53:12.871Z,38.10
2018-04-20T13:55:40.535Z,38.00
2018-04-20T13:58:09.068Z,38.70
2018-04-20T14:00:36.611Z,39.40
2018-04-20T14:03:04.242Z,38.50
2018-04-20T14:05:31.926Z,37.90
2018-04-20T14:08:00.268Z,38.30
2018-04-20T14:10:27.835Z,38.30
2018-04-20T14:12:55.491Z,38.10
2018-04-20T14:15:23.050Z,38.50
2018-04-20T14:17:50.627Z,39.20
2018-04-20T14:20:18.156Z,38.00
2018-04-20T14:22:45.721Z,39.00
2018-04-20T14:25:13.291Z,38.40
2018-04-20T14:27:40.906Z,38.50
2018-04-20T14:30:08.464Z,38.50
2018-04-20T14:32:36.819Z,38.00
2018-04-20T14:35:04.428Z,37.90
2018-04-20T14:37:31.969Z,38.00
2018-04-20T14:39:59.602Z,38.10
2018-04-20T14:42:27.186Z,38.00
2018-04-20T14:44:54.748Z,38.10
2018-04-20T14:47:23.183Z,38.20
2018-04-20T14:49:50.728Z,38.20
2018-04-20T14:52:18.283Z,38.30
2018-04-20T14:54:45.864Z,38.20
2018-04-20T14:57:13.524Z,38.20
2018-04-20T14:59:41.128Z,38.10
2018-04-20T15:02:09.539Z,37.70
2018-04-20T15:04:37.161Z,37.70
2018-04-20T15:07:05.547Z,38.10
2018-04-20T15:09:33.102Z,38.10
2018-04-20T15:12:00.667Z,38.30
2018-04-20T15:14:28.479Z,38.40
2018-04-20T15:16:56.042Z,38.50
2018-04-20T15:19:23.802Z,38.50
2018-04-20T15:21:51.364Z,38.10
2018-04-20T15:24:18.923Z,37.70
2018-04-20T15:26:46.486Z,38.00
2018-04-20T15:29:14.143Z,38.00
2018-04-20T15:31:41.675Z,38.00
2018-04-20T15:34:09.252Z,37.90
2018-04-20T15:36:36.773Z,38.10
2018-04-20T15:39:04.341Z,38.00
2018-04-20T15:41:32.061Z,38.10
2018-04-20T15:43:59.578Z,38.30
2018-04-20T15:46:27.147Z,38.10
2018-04-20T15:48:54.707Z,37.70
2018-04-20T15:51:22.267Z,37.80
2018-04-20T15:53:49.863Z,37.10
2018-04-20T15:56:17.386Z,36.70
2018-04-20T15:58:44.946Z,37.00
2018-04-20T16:01:12.505Z,36.70
2018-04-20T16:03:40.058Z,36.40
2018-04-20T16:06:07.669Z,36.40
2018-04-20T16:08:35.391Z,36.80
2018-04-20T16:11:02.983Z,37.40
2018-04-20T16:13:30.557Z,37.20
2018-04-20T16:15:58.078Z,37.20
2018-04-20T16:18:25.671Z,37.60
2018-04-20T16:20:53.339Z,37.20
2018-04-20T16:23:20.926Z,37.00
2018-04-20T16:25:49.253Z,36.90
2018-04-20T16:28:16.894Z,36.80
2018-04-20T16:30:44.466Z,36.70
2018-04-20T16:33:12.033Z,36.80
2018-04-20T16:35:39.585Z,36.70
2018-04-20T16:38:07.170Z,37.20
2018-04-20T16:40:34.862Z,36.90
2018-04-20T16:43:02.417Z,37.10
2018-04-20T16:45:30.051Z,37.50
2018-04-20T16:47:57.617Z,37.40
2018-04-20T16:50:25.186Z,37.90
2018-04-20T16:52:52.799Z,37.70
2018-04-20T16:55:20.383Z,37.90
2018-04-20T16:57:47.916Z,38.20
2018-04-20T17:00:15.467Z,38.40
2018-04-20T17:02:43.114Z,38.30
2018-04-20T17:05:10.651Z,38.30
2018-04-20T17:07:38.319Z,38.60
2018-04-20T17:10:06.702Z,38.90
2018-04-20T17:12:35.051Z,39.00
2018-04-20T17:15:02.583Z,38.90
2018-04-20T17:17:30.135Z,39.20
2018-04-20T17:19:57.721Z,39.20
2018-04-20T17:22:25.248Z,39.30
2018-04-20T17:24:52.874Z,39.50
2018-04-20T17:27:20.498Z,39.70
2018-04-20T17:29:48.047Z,39.80
2018-04-20T17:32:15.614Z,40.00
2018-04-20T17:34:43.181Z,40.20
2018-04-20T17:37:10.741Z,40.00
2018-04-20T17:39:38.384Z,40.10
2018-04-20T17:42:06.681Z,40.10
2018-04-20T17:44:34.208Z,40.10
2018-04-20T17:47:01.779Z,40.20
2018-04-20T17:49:29.310Z,40.20
2018-04-20T17:51:56.849Z,40.30
2018-04-20T17:54:25.579Z,40.70
2018-04-20T17:56:53.345Z,40.70
2018-04-20T17:59:21.064Z,40.80
2018-04-20T18:01:49.370Z,41.60
2018-04-20T18:04:16.925Z,40.90
2018-04-20T18:06:44.514Z,41.00
2018-04-20T18:09:12.074Z,41.10
2018-04-20T18:11:39.693Z,41.50
2018-04-20T18:14:07.260Z,41.90
2018-04-20T18:16:35.643Z,42.00
2018-04-20T18:19:03.194Z,42.00
2018-04-20T18:21:31.516Z,42.20
2018-04-20T18:23:59.063Z,42.20
2018-04-20T18:26:26.627Z,42.40
2018-04-20T18:28:54.208Z,42.60
2018-04-20T18:31:21.796Z,42.70
2018-04-20T18:33:49.351Z,42.90
2018-04-20T18:36:16.864Z,43.40
2018-04-20T18:38:44.450Z,43.60
2018-04-20T18:41:12.111Z,43.90
2018-04-20T18:43:39.674Z,44.40
2018-04-20T18:46:07.303Z,44.60
2018-04-20T18:48:35.397Z,44.60
2018-04-20T18:51:02.916Z,44.60
2018-04-20T18:53:30.521Z,45.40
2018-04-20T18:55:58.175Z,45.20
2018-04-20T18:58:25.723Z,45.10
2018-04-20T19:00:53.303Z,45.00
2018-04-20T19:03:20.860Z,45.20
2018-04-20T19:05:48.425Z,45.40
2018-04-20T19:08:15.976Z,45.60
2018-04-20T19:10:43.503Z,45.70
2018-04-20T19:13:11.045Z,45.90
2018-04-20T19:15:38.606Z,46.00
2018-04-20T19:18:07.039Z,46.20
2018-04-20T19:20:34.618Z,46.20
2018-04-20T19:23:02.157Z,46.30
2018-04-20T19:25:29.804Z,46.50
2018-04-20T19:27:57.386Z,46.80
2018-04-20T19:30:24.966Z,46.90
2018-04-20T19:32:52.540Z,47.00
2018-04-20T19:35:20.127Z,47.20
2018-04-20T19:37:47.717Z,47.20
2018-04-20T19:40:15.235Z,47.30
2018-04-20T19:42:42.799Z,47.40
2018-04-20T19:45:10.346Z,47.50
2018-04-20T19:47:38.674Z,47.70
2018-04-20T19:50:06.285Z,47.70
2018-04-20T19:52:33.841Z,47.70
2018-04-20T19:55:01.415Z,47.70
2018-04-20T19:57:29.027Z,47.70
2018-04-20T19:59:56.809Z,48.40
2018-04-20T20:02:25.139Z,47.90
2018-04-20T20:04:52.716Z,47.90
2018-04-20T20:07:20.277Z,47.90
2018-04-20T20:09:47.800Z,48.00
2018-04-20T20:12:15.457Z,48.00
2018-04-20T20:14:43.053Z,48.10
2018-04-20T20:17:10.738Z,48.20
2018-04-20T20:19:38.286Z,48.10
2018-04-20T20:22:05.951Z,48.10
2018-04-20T20:24:33.487Z,48.30
2018-04-20T20:27:01.031Z,48.20
2018-04-20T20:29:28.591Z,48.30
2018-04-20T20:31:56.137Z,48.50
2018-04-20T20:34:23.674Z,48.50
2018-04-20T20:36:51.196Z,48.70
2018-04-20T20:39:18.757Z,48.80
2018-04-20T20:41:46.339Z,48.90
2018-04-20T20:44:14.726Z,49.00
2018-04-20T20:46:42.256Z,49.00
2018-04-20T20:49:09.823Z,49.20
2018-04-20T20:51:37.338Z,49.30
2018-04-20T20:54:04.895Z,49.30
2018-04-20T20:56:32.419Z,49.50
2018-04-20T20:58:59.974Z,49.60
2018-04-20T21:01:27.552Z,49.70
2018-04-20T21:03:55.161Z,49.70
2018-04-20T21:06:22.679Z,49.70
2018-04-20T21:08:50.277Z,49.70
2018-04-20T21:11:17.792Z,49.70
2018-04-20T21:13:46.095Z,50.00
2018-04-20T21:16:13.652Z,49.90
2018-04-20T21:18:41.181Z,50.00
2018-04-20T21:21:08.738Z,50.10
2018-04-20T21:23:36.271Z,50.30
2018-04-20T21:26:03.844Z,50.30
2018-04-20T21:28:31.382Z,50.40
2018-04-20T21:30:58.979Z,50.40
2018-04-20T21:33:26.575Z,50.50
2018-04-20T21:35:54.189Z,50.50
2018-04-20T21:38:21.778Z,50.50
2018-04-20T21:40:49.461Z,50.70
2018-04-20T21:43:17.043Z,50.70
2018-04-20T21:45:44.639Z,50.80
2018-04-20T21:48:12.243Z,51.00
2018-04-20T21:50:39.779Z,51.30
2018-04-20T21:53:07.438Z,52.00
2018-04-20T21:55:35.049Z,51.60
2018-04-20T21:58:03.535Z,51.70
2018-04-20T22:00:31.116Z,51.60
2018-04-20T22:02:58.646Z,51.60
2018-04-20T22:05:26.162Z,52.20
2018-04-20T22:07:53.742Z,51.80
2018-04-20T22:10:21.263Z,51.70
2018-04-20T22:12:49.659Z,52.00
2018-04-20T22:15:18.013Z,51.90
2018-04-20T22:17:46.403Z,51.70
2018-04-20T22:20:14.695Z,51.80
2018-04-20T22:22:42.255Z,51.80
2018-04-20T22:25:10.542Z,52.00
2018-04-20T22:27:38.122Z,52.00
2018-04-20T22:30:05.656Z,52.00
2018-04-20T22:32:33.258Z,52.00
2018-04-20T22:35:00.774Z,52.10
2018-04-20T22:37:29.095Z,52.10
2018-04-20T22:39:57.170Z,52.10
2018-04-20T22:42:24.729Z,52.20
2018-04-20T22:44:52.292Z,52.40
2018-04-20T22:47:19.856Z,52.50
2018-04-20T22:49:47.568Z,52.40
2018-04-20T22:52:15.106Z,52.40
2018-04-20T22:54:43.411Z,52.60
2018-04-20T22:57:10.970Z,52.60
2018-04-20T22:59:38.504Z,52.80
2018-04-20T23:02:06.080Z,52.80
2018-04-20T23:04:33.607Z,52.60
2018-04-20T23:07:01.232Z,52.60
2018-04-20T23:09:28.775Z,52.60
2018-04-20T23:11:56.298Z,52.60
2018-04-20T23:14:23.999Z,52.60
2018-04-20T23:16:51.561Z,52.70
2018-04-20T23:19:19.123Z,52.80
2018-04-20T23:21:46.648Z,53.10
2018-04-20T23:24:14.214Z,53.00
2018-04-20T23:26:41.817Z,53.00
2018-04-20T23:29:09.386Z,53.00
2018-04-20T23:31:37.006Z,53.00
2018-04-20T23:34:04.546Z,52.90
2018-04-20T23:36:32.107Z,53.20
2018-04-20T23:38:59.702Z,53.30
2018-04-20T23:41:27.247Z,53.30
2018-04-20T23:43:54.763Z,53.30
2018-04-20T23:46:22.310Z,53.30
2018-04-20T23:48:49.826Z,53.30
2018-04-20T23:51:17.402Z,53.50
2018-04-20T23:53:44.926Z,53.60
2018-04-20T23:56:12.471Z,53.90
2018-04-20T23:58:40.021Z,54.00
